METAR Formatted Surface Weather Observation
Issued by NWS

Current Version | Previous Version | Text Only | Print | Product List | Glossary On
Versions: 1
000
SAUS42 KMHX 271256
MTRNKT
METAR KNKT 271254Z 23006KT 10SM CLR 26/23 A3001 RMK AO2 SLP158
T02610233


USA.gov is the U.S. government's official web portal to all federal, state and local government web resources and services.